sensor_id;sensor_type;location;lat;lon;timestamp;P1;durP1;ratioP1;P2;durP2;ratioP2
37495;SDS011;23346;52.088;4.746;2024-01-15T00:02:11;94.27;;;90.13;;
37495;SDS011;23346;52.088;4.746;2024-01-15T00:04:38;96.40;;;92.20;;
37495;SDS011;23346;52.088;4.746;2024-01-15T00:07:04;95.13;;;90.93;;
37495;SDS011;23346;52.088;4.746;2024-01-15T00:09:30;91.43;;;87.47;;
37495;SDS011;23346;52.088;4.746;2024-01-15T00:11:56;88.57;;;84.70;;
37495;SDS011;23346;52.088;4.746;2024-01-15T00:14:22;82.80;;;79.20;;
37495;SDS011;23346;52.088;4.746;2024-01-15T00:16:48;82.13;;;78.53;;
37495;SDS011;23346;52.088;4.746;2024-01-15T00:19:16;77.57;;;74.17;;
37495;SDS011;23346;52.088;4.746;2024-01-15T00:21:42;76.73;;;73.40;;
37495;SDS011;23346;52.088;4.746;2024-01-15T00:24:08;77.60;;;74.20;;
37495;SDS011;23346;52.088;4.746;2024-01-15T00:26:34;82.07;;;78.50;;
37495;SDS011;23346;52.088;4.746;2024-01-15T00:29:00;87.93;;;84.10;;
37495;SDS011;23346;52.088;4.746;2024-01-15T00:31:26;86.97;;;83.17;;
37495;SDS011;23346;52.088;4.746;2024-01-15T00:33:53;89.03;;;85.13;;
37495;SDS011;23346;52.088;4.746;2024-01-15T00:36:19;92.67;;;88.60;;
37495;SDS011;23346;52.088;4.746;2024-01-15T00:38:44;98.63;;;94.33;;
37495;SDS011;23346;52.088;4.746;2024-01-15T00:41:12;101.63;;;97.17;;
37495;SDS011;23346;52.088;4.746;2024-01-15T00:43:38;101.67;;;97.20;;
37495;SDS011;23346;52.088;4.746;2024-01-15T00:46:04;98.27;;;93.93;;
37495;SDS011;23346;52.088;4.746;2024-01-15T00:48:30;93.90;;;89.80;;
37495;SDS011;23346;52.088;4.746;2024-01-15T00:50:56;96.90;;;92.67;;
37495;SDS011;23346;52.088;4.746;2024-01-15T00:53:22;100.07;;;95.70;;
37495;SDS011;23346;52.088;4.746;2024-01-15T00:55:48;104.60;;;100.00;;
37495;SDS011;23346;52.088;4.746;2024-01-15T00:58:14;106.90;;;102.20;;
37495;SDS011;23346;52.088;4.746;2024-01-15T01:00:40;114.30;;;109.27;;
37495;SDS011;23346;52.088;4.746;2024-01-15T01:03:06;116.10;;;110.97;;
37495;SDS011;23346;52.088;4.746;2024-01-15T01:05:33;117.33;;;112.17;;
37495;SDS011;23346;52.088;4.746;2024-01-15T01:07:59;112.80;;;107.83;;
37495;SDS011;23346;52.088;4.746;2024-01-15T01:10:25;109.93;;;105.07;;
37495;SDS011;23346;52.088;4.746;2024-01-15T01:12:51;114.27;;;109.23;;
37495;SDS011;23346;52.088;4.746;2024-01-15T01:15:17;107.97;;;103.23;;
37495;SDS011;23346;52.088;4.746;2024-01-15T01:17:43;110.77;;;105.93;;
37495;SDS011;23346;52.088;4.746;2024-01-15T01:20:09;109.13;;;104.33;;
37495;SDS011;23346;52.088;4.746;2024-01-15T01:22:36;102.87;;;98.37;;
37495;SDS011;23346;52.088;4.746;2024-01-15T01:25:02;108.50;;;103.73;;
37495;SDS011;23346;52.088;4.746;2024-01-15T01:27:28;104.27;;;99.70;;
37495;SDS011;23346;52.088;4.746;2024-01-15T01:29:54;98.10;;;93.80;;
37495;SDS011;23346;52.088;4.746;2024-01-15T01:32:20;97.73;;;93.43;;
37495;SDS011;23346;52.088;4.746;2024-01-15T01:34:46;92.40;;;88.33;;
37495;SDS011;23346;52.088;4.746;2024-01-15T01:37:12;89.70;;;85.77;;
37495;SDS011;23346;52.088;4.746;2024-01-15T01:39:38;88.43;;;84.57;;
37495;SDS011;23346;52.088;4.746;2024-01-15T01:42:05;82.13;;;78.53;;
37495;SDS011;23346;52.088;4.746;2024-01-15T01:44:31;80.57;;;77.03;;
37495;SDS011;23346;52.088;4.746;2024-01-15T01:46:57;79.97;;;76.47;;
37495;SDS011;23346;52.088;4.746;2024-01-15T01:49:24;78.83;;;75.40;;
37495;SDS011;23346;52.088;4.746;2024-01-15T01:51:50;74.70;;;71.40;;
37495;SDS011;23346;52.088;4.746;2024-01-15T01:54:16;75.43;;;72.17;;
37495;SDS011;23346;52.088;4.746;2024-01-15T01:56:43;67.80;;;64.87;;
37495;SDS011;23346;52.088;4.746;2024-01-15T01:59:09;74.87;;;71.53;;
37495;SDS011;23346;52.088;4.746;2024-01-15T02:01:36;71.60;;;67.97;;
37495;SDS011;23346;52.088;4.746;2024-01-15T02:04:03;62.20;;;59.47;;
37495;SDS011;23346;52.088;4.746;2024-01-15T02:06:29;85.87;;;82.10;;
37495;SDS011;23346;52.088;4.746;2024-01-15T02:08:55;83.10;;;79.03;;
37495;SDS011;23346;52.088;4.746;2024-01-15T02:11:21;82.43;;;78.77;;
37495;SDS011;23346;52.088;4.746;2024-01-15T02:13:47;73.83;;;70.57;;
37495;SDS011;23346;52.088;4.746;2024-01-15T02:16:13;81.13;;;77.60;;
37495;SDS011;23346;52.088;4.746;2024-01-15T02:18:40;95.13;;;90.93;;
37495;SDS011;23346;52.088;4.746;2024-01-15T02:21:06;93.47;;;89.37;;
37495;SDS011;23346;52.088;4.746;2024-01-15T02:23:32;96.93;;;92.67;;
37495;SDS011;23346;52.088;4.746;2024-01-15T02:25:58;97.73;;;93.43;;
37495;SDS011;23346;52.088;4.746;2024-01-15T02:28:24;105.83;;;101.20;;
37495;SDS011;23346;52.088;4.746;2024-01-15T02:30:50;105.63;;;100.97;;
37495;SDS011;23346;52.088;4.746;2024-01-15T02:33:16;113.93;;;108.93;;
37495;SDS011;23346;52.088;4.746;2024-01-15T02:35:42;117.70;;;112.50;;
37495;SDS011;23346;52.088;4.746;2024-01-15T02:38:08;110.13;;;105.30;;
37495;SDS011;23346;52.088;4.746;2024-01-15T02:40:34;112.00;;;107.07;;
37495;SDS011;23346;52.088;4.746;2024-01-15T02:43:00;108.47;;;103.67;;
37495;SDS011;23346;52.088;4.746;2024-01-15T02:45:26;124.33;;;118.83;;
37495;SDS011;23346;52.088;4.746;2024-01-15T02:47:52;121.53;;;116.17;;
37495;SDS011;23346;52.088;4.746;2024-01-15T02:50:18;115.23;;;110.13;;
37495;SDS011;23346;52.088;4.746;2024-01-15T02:52:44;123.77;;;118.30;;
37495;SDS011;23346;52.088;4.746;2024-01-15T02:55:10;109.97;;;105.13;;
37495;SDS011;23346;52.088;4.746;2024-01-15T02:57:36;112.77;;;107.80;;
37495;SDS011;23346;52.088;4.746;2024-01-15T03:00:02;107.97;;;103.20;;
37495;SDS011;23346;52.088;4.746;2024-01-15T03:02:29;95.47;;;91.27;;
37495;SDS011;23346;52.088;4.746;2024-01-15T03:04:56;97.80;;;93.47;;
37495;SDS011;23346;52.088;4.746;2024-01-15T03:07:22;91.87;;;87.80;;
37495;SDS011;23346;52.088;4.746;2024-01-15T03:09:48;86.70;;;82.90;;
37495;SDS011;23346;52.088;4.746;2024-01-15T03:12:14;92.50;;;88.40;;
37495;SDS011;23346;52.088;4.746;2024-01-15T03:14:41;94.27;;;90.13;;
37495;SDS011;23346;52.088;4.746;2024-01-15T03:17:07;77.17;;;73.80;;
37495;SDS011;23346;52.088;4.746;2024-01-15T03:19:35;73.93;;;70.70;;
37495;SDS011;23346;52.088;4.746;2024-01-15T03:22:01;75.40;;;72.10;;
37495;SDS011;23346;52.088;4.746;2024-01-15T03:24:28;70.43;;;67.37;;
37495;SDS011;23346;52.088;4.746;2024-01-15T03:26:54;69.00;;;65.97;;
37495;SDS011;23346;52.088;4.746;2024-01-15T03:29:20;70.70;;;67.53;;
37495;SDS011;23346;52.088;4.746;2024-01-15T03:31:47;64.07;;;61.30;;
37495;SDS011;23346;52.088;4.746;2024-01-15T03:34:13;67.40;;;64.47;;
37495;SDS011;23346;52.088;4.746;2024-01-15T03:36:39;59.73;;;57.17;;
37495;SDS011;23346;52.088;4.746;2024-01-15T03:39:05;72.83;;;69.67;;
37495;SDS011;23346;52.088;4.746;2024-01-15T03:41:32;62.27;;;59.57;;
37495;SDS011;23346;52.088;4.746;2024-01-15T03:43:58;59.77;;;57.17;;
37495;SDS011;23346;52.088;4.746;2024-01-15T03:46:24;57.13;;;54.67;;
37495;SDS011;23346;52.088;4.746;2024-01-15T03:48:50;60.43;;;57.83;;
37495;SDS011;23346;52.088;4.746;2024-01-15T03:51:19;68.40;;;65.43;;
37495;SDS011;23346;52.088;4.746;2024-01-15T03:53:45;64.07;;;61.30;;
37495;SDS011;23346;52.088;4.746;2024-01-15T03:56:12;55.23;;;52.83;;
37495;SDS011;23346;52.088;4.746;2024-01-15T03:58:38;60.73;;;58.13;;
37495;SDS011;23346;52.088;4.746;2024-01-15T04:01:07;55.90;;;53.50;;
37495;SDS011;23346;52.088;4.746;2024-01-15T04:03:33;56.03;;;53.63;;
37495;SDS011;23346;52.088;4.746;2024-01-15T04:05:59;58.70;;;56.17;;
37495;SDS011;23346;52.088;4.746;2024-01-15T04:08:25;57.50;;;55.00;;
37495;SDS011;23346;52.088;4.746;2024-01-15T04:10:51;56.73;;;54.27;;
37495;SDS011;23346;52.088;4.746;2024-01-15T04:13:17;59.33;;;56.77;;
37495;SDS011;23346;52.088;4.746;2024-01-15T04:15:43;61.87;;;59.20;;
37495;SDS011;23346;52.088;4.746;2024-01-15T04:18:09;60.37;;;57.73;;
37495;SDS011;23346;52.088;4.746;2024-01-15T04:20:35;63.63;;;60.87;;
37495;SDS011;23346;52.088;4.746;2024-01-15T04:23:01;62.13;;;59.47;;
37495;SDS011;23346;52.088;4.746;2024-01-15T04:25:27;60.93;;;58.30;;
37495;SDS011;23346;52.088;4.746;2024-01-15T04:27:53;61.00;;;58.37;;
37495;SDS011;23346;52.088;4.746;2024-01-15T04:30:19;61.63;;;58.93;;
37495;SDS011;23346;52.088;4.746;2024-01-15T04:32:45;60.23;;;57.63;;
37495;SDS011;23346;52.088;4.746;2024-01-15T04:35:11;58.00;;;55.50;;
37495;SDS011;23346;52.088;4.746;2024-01-15T04:37:37;57.20;;;54.73;;
37495;SDS011;23346;52.088;4.746;2024-01-15T04:40:03;53.93;;;51.60;;
37495;SDS011;23346;52.088;4.746;2024-01-15T04:42:30;50.07;;;47.90;;
37495;SDS011;23346;52.088;4.746;2024-01-15T04:44:55;49.30;;;47.20;;
37495;SDS011;23346;52.088;4.746;2024-01-15T04:47:21;46.20;;;44.20;;
37495;SDS011;23346;52.088;4.746;2024-01-15T04:49:47;43.93;;;42.07;;
37495;SDS011;23346;52.088;4.746;2024-01-15T04:52:14;46.73;;;44.70;;
37495;SDS011;23346;52.088;4.746;2024-01-15T04:54:40;45.37;;;43.43;;
37495;SDS011;23346;52.088;4.746;2024-01-15T04:57:06;44.00;;;42.13;;
37495;SDS011;23346;52.088;4.746;2024-01-15T04:59:32;41.93;;;40.13;;
37495;SDS011;23346;52.088;4.746;2024-01-15T05:01:58;47.43;;;45.40;;
37495;SDS011;23346;52.088;4.746;2024-01-15T05:04:24;51.47;;;49.23;;
37495;SDS011;23346;52.088;4.746;2024-01-15T05:06:50;55.37;;;53.00;;
37495;SDS011;23346;52.088;4.746;2024-01-15T05:09:16;56.93;;;54.50;;
37495;SDS011;23346;52.088;4.746;2024-01-15T05:11:43;54.97;;;52.60;;
37495;SDS011;23346;52.088;4.746;2024-01-15T05:14:09;60.10;;;57.50;;
37495;SDS011;23346;52.088;4.746;2024-01-15T05:16:35;60.33;;;57.73;;
37495;SDS011;23346;52.088;4.746;2024-01-15T05:19:01;58.53;;;56.00;;
37495;SDS011;23346;52.088;4.746;2024-01-15T05:21:27;56.03;;;53.60;;
37495;SDS011;23346;52.088;4.746;2024-01-15T05:23:53;60.43;;;57.83;;
37495;SDS011;23346;52.088;4.746;2024-01-15T05:26:19;58.80;;;56.27;;
37495;SDS011;23346;52.088;4.746;2024-01-15T05:28:44;60.40;;;57.80;;
37495;SDS011;23346;52.088;4.746;2024-01-15T05:31:10;55.47;;;53.07;;
37495;SDS011;23346;52.088;4.746;2024-01-15T05:33:37;57.33;;;54.87;;
37495;SDS011;23346;52.088;4.746;2024-01-15T05:36:03;55.67;;;53.27;;
37495;SDS011;23346;52.088;4.746;2024-01-15T05:38:29;53.57;;;51.23;;
37495;SDS011;23346;52.088;4.746;2024-01-15T05:40:55;49.27;;;47.13;;
37495;SDS011;23346;52.088;4.746;2024-01-15T05:43:21;52.03;;;49.80;;
37495;SDS011;23346;52.088;4.746;2024-01-15T05:45:47;51.57;;;49.33;;
37495;SDS011;23346;52.088;4.746;2024-01-15T05:48:13;52.47;;;50.20;;
37495;SDS011;23346;52.088;4.746;2024-01-15T05:50:39;53.90;;;51.57;;
37495;SDS011;23346;52.088;4.746;2024-01-15T05:53:05;53.43;;;51.13;;
37495;SDS011;23346;52.088;4.746;2024-01-15T05:55:31;54.67;;;52.30;;
37495;SDS011;23346;52.088;4.746;2024-01-15T05:57:57;53.70;;;51.37;;
37495;SDS011;23346;52.088;4.746;2024-01-15T06:00:23;52.17;;;49.93;;
37495;SDS011;23346;52.088;4.746;2024-01-15T06:02:49;53.20;;;50.93;;
37495;SDS011;23346;52.088;4.746;2024-01-15T06:05:15;53.20;;;50.93;;
37495;SDS011;23346;52.088;4.746;2024-01-15T06:07:41;52.13;;;49.90;;
37495;SDS011;23346;52.088;4.746;2024-01-15T06:10:07;54.90;;;52.53;;
37495;SDS011;23346;52.088;4.746;2024-01-15T06:12:33;55.43;;;53.03;;
37495;SDS011;23346;52.088;4.746;2024-01-15T06:14:59;55.10;;;52.73;;
37495;SDS011;23346;52.088;4.746;2024-01-15T06:17:25;60.73;;;58.10;;
37495;SDS011;23346;52.088;4.746;2024-01-15T06:19:51;58.47;;;55.93;;
37495;SDS011;23346;52.088;4.746;2024-01-15T06:22:17;64.47;;;61.67;;
37495;SDS011;23346;52.088;4.746;2024-01-15T06:24:43;63.97;;;61.20;;
37495;SDS011;23346;52.088;4.746;2024-01-15T06:27:09;62.10;;;59.40;;
37495;SDS011;23346;52.088;4.746;2024-01-15T06:29:37;63.73;;;60.97;;
37495;SDS011;23346;52.088;4.746;2024-01-15T06:32:03;65.80;;;62.93;;
37495;SDS011;23346;52.088;4.746;2024-01-15T06:34:29;68.03;;;65.10;;
37495;SDS011;23346;52.088;4.746;2024-01-15T06:36:55;65.57;;;62.73;;
37495;SDS011;23346;52.088;4.746;2024-01-15T06:39:21;66.43;;;63.57;;
37495;SDS011;23346;52.088;4.746;2024-01-15T06:41:47;69.47;;;66.43;;
37495;SDS011;23346;52.088;4.746;2024-01-15T06:44:13;72.47;;;69.33;;
37495;SDS011;23346;52.088;4.746;2024-01-15T06:46:43;70.13;;;67.10;;
37495;SDS011;23346;52.088;4.746;2024-01-15T06:49:09;68.47;;;65.50;;
37495;SDS011;23346;52.088;4.746;2024-01-15T06:51:36;67.77;;;64.83;;
37495;SDS011;23346;52.088;4.746;2024-01-15T06:54:02;67.40;;;64.47;;
37495;SDS011;23346;52.088;4.746;2024-01-15T06:56:28;69.60;;;66.57;;
37495;SDS011;23346;52.088;4.746;2024-01-15T06:58:54;78.73;;;75.30;;
37495;SDS011;23346;52.088;4.746;2024-01-15T07:01:19;73.30;;;70.10;;
37495;SDS011;23346;52.088;4.746;2024-01-15T07:03:46;72.00;;;68.87;;
37495;SDS011;23346;52.088;4.746;2024-01-15T07:06:12;73.60;;;70.40;;
37495;SDS011;23346;52.088;4.746;2024-01-15T07:08:38;87.13;;;83.30;;
37495;SDS011;23346;52.088;4.746;2024-01-15T07:11:04;87.27;;;83.43;;
37495;SDS011;23346;52.088;4.746;2024-01-15T07:13:30;91.93;;;87.90;;
37495;SDS011;23346;52.088;4.746;2024-01-15T07:15:56;89.90;;;85.93;;
37495;SDS011;23346;52.088;4.746;2024-01-15T07:18:22;86.70;;;82.90;;
37495;SDS011;23346;52.088;4.746;2024-01-15T07:20:48;78.37;;;74.90;;
37495;SDS011;23346;52.088;4.746;2024-01-15T07:23:14;78.87;;;75.40;;
37495;SDS011;23346;52.088;4.746;2024-01-15T07:25:40;74.57;;;71.30;;
37495;SDS011;23346;52.088;4.746;2024-01-15T07:28:07;76.70;;;73.37;;
37495;SDS011;23346;52.088;4.746;2024-01-15T07:30:33;70.73;;;67.63;;
37495;SDS011;23346;52.088;4.746;2024-01-15T07:32:59;67.23;;;64.33;;
37495;SDS011;23346;52.088;4.746;2024-01-15T07:35:25;63.03;;;60.30;;
37495;SDS011;23346;52.088;4.746;2024-01-15T07:37:51;64.53;;;61.73;;
37495;SDS011;23346;52.088;4.746;2024-01-15T07:40:17;60.23;;;57.60;;
37495;SDS011;23346;52.088;4.746;2024-01-15T07:42:43;69.03;;;66.03;;
37495;SDS011;23346;52.088;4.746;2024-01-15T07:45:09;69.17;;;66.17;;
37495;SDS011;23346;52.088;4.746;2024-01-15T07:47:35;71.10;;;68.00;;
37495;SDS011;23346;52.088;4.746;2024-01-15T07:50:02;74.50;;;71.23;;
37495;SDS011;23346;52.088;4.746;2024-01-15T07:52:28;78.53;;;75.13;;
37495;SDS011;23346;52.088;4.746;2024-01-15T07:54:54;75.97;;;72.63;;
37495;SDS011;23346;52.088;4.746;2024-01-15T07:57:20;78.20;;;74.80;;
37495;SDS011;23346;52.088;4.746;2024-01-15T07:59:46;78.73;;;75.30;;
37495;SDS011;23346;52.088;4.746;2024-01-15T08:02:12;74.47;;;71.23;;
37495;SDS011;23346;52.088;4.746;2024-01-15T08:04:38;69.30;;;66.30;;
37495;SDS011;23346;52.088;4.746;2024-01-15T08:07:04;70.90;;;67.80;;
37495;SDS011;23346;52.088;4.746;2024-01-15T08:09:32;67.70;;;64.77;;
37495;SDS011;23346;52.088;4.746;2024-01-15T08:11:58;67.20;;;64.27;;
37495;SDS011;23346;52.088;4.746;2024-01-15T08:14:25;69.17;;;66.17;;
37495;SDS011;23346;52.088;4.746;2024-01-15T08:16:51;68.20;;;65.23;;
37495;SDS011;23346;52.088;4.746;2024-01-15T08:19:17;77.10;;;73.77;;
37495;SDS011;23346;52.088;4.746;2024-01-15T08:21:42;70.03;;;66.97;;
37495;SDS011;23346;52.088;4.746;2024-01-15T08:24:08;68.80;;;65.80;;
37495;SDS011;23346;52.088;4.746;2024-01-15T08:26:34;72.03;;;68.90;;
37495;SDS011;23346;52.088;4.746;2024-01-15T08:29:00;74.43;;;71.20;;
37495;SDS011;23346;52.088;4.746;2024-01-15T08:31:26;72.47;;;69.33;;
37495;SDS011;23346;52.088;4.746;2024-01-15T08:33:53;78.57;;;75.13;;
37495;SDS011;23346;52.088;4.746;2024-01-15T08:36:19;77.77;;;74.37;;
37495;SDS011;23346;52.088;4.746;2024-01-15T08:38:45;79.53;;;76.03;;
37495;SDS011;23346;52.088;4.746;2024-01-15T08:41:11;76.50;;;73.17;;
37495;SDS011;23346;52.088;4.746;2024-01-15T08:43:37;78.03;;;74.63;;
37495;SDS011;23346;52.088;4.746;2024-01-15T08:46:03;78.57;;;75.13;;
37495;SDS011;23346;52.088;4.746;2024-01-15T08:48:29;76.73;;;73.40;;
37495;SDS011;23346;52.088;4.746;2024-01-15T08:50:55;80.03;;;76.53;;
37495;SDS011;23346;52.088;4.746;2024-01-15T08:53:21;87.67;;;83.80;;
37495;SDS011;23346;52.088;4.746;2024-01-15T08:55:47;90.87;;;86.90;;
37495;SDS011;23346;52.088;4.746;2024-01-15T08:58:14;98.37;;;94.03;;
37495;SDS011;23346;52.088;4.746;2024-01-15T09:00:40;102.40;;;97.93;;
37495;SDS011;23346;52.088;4.746;2024-01-15T09:03:06;98.60;;;94.27;;
37495;SDS011;23346;52.088;4.746;2024-01-15T09:05:33;100.90;;;96.47;;
37495;SDS011;23346;52.088;4.746;2024-01-15T09:07:59;102.17;;;97.70;;
37495;SDS011;23346;52.088;4.746;2024-01-15T09:10:25;105.03;;;100.40;;
37495;SDS011;23346;52.088;4.746;2024-01-15T09:12:51;104.60;;;100.03;;
37495;SDS011;23346;52.088;4.746;2024-01-15T09:15:17;104.47;;;99.90;;
37495;SDS011;23346;52.088;4.746;2024-01-15T09:17:44;101.73;;;97.27;;
37495;SDS011;23346;52.088;4.746;2024-01-15T09:20:11;102.47;;;97.97;;
37495;SDS011;23346;52.088;4.746;2024-01-15T09:22:39;106.13;;;101.47;;
37495;SDS011;23346;52.088;4.746;2024-01-15T09:25:07;101.17;;;96.70;;
37495;SDS011;23346;52.088;4.746;2024-01-15T09:27:34;100.47;;;96.03;;
37495;SDS011;23346;52.088;4.746;2024-01-15T09:30:00;97.73;;;93.47;;
37495;SDS011;23346;52.088;4.746;2024-01-15T09:32:26;94.10;;;89.97;;
37495;SDS011;23346;52.088;4.746;2024-01-15T09:34:52;97.73;;;93.43;;
37495;SDS011;23346;52.088;4.746;2024-01-15T09:37:18;95.77;;;91.57;;
37495;SDS011;23346;52.088;4.746;2024-01-15T09:39:44;92.27;;;88.23;;
37495;SDS011;23346;52.088;4.746;2024-01-15T09:42:10;94.97;;;90.80;;
37495;SDS011;23346;52.088;4.746;2024-01-15T09:44:36;93.07;;;88.97;;
37495;SDS011;23346;52.088;4.746;2024-01-15T09:47:03;92.70;;;88.63;;
37495;SDS011;23346;52.088;4.746;2024-01-15T09:49:29;92.53;;;88.47;;
37495;SDS011;23346;52.088;4.746;2024-01-15T09:51:55;87.03;;;83.23;;
37495;SDS011;23346;52.088;4.746;2024-01-15T09:54:22;87.43;;;83.60;;
37495;SDS011;23346;52.088;4.746;2024-01-15T09:56:48;83.27;;;79.60;;
37495;SDS011;23346;52.088;4.746;2024-01-15T09:59:18;82.30;;;78.70;;
37495;SDS011;23346;52.088;4.746;2024-01-15T10:01:45;80.20;;;76.70;;
37495;SDS011;23346;52.088;4.746;2024-01-15T10:04:12;89.90;;;86.00;;
37495;SDS011;23346;52.088;4.746;2024-01-15T10:06:39;90.77;;;86.83;;
37495;SDS011;23346;52.088;4.746;2024-01-15T10:09:05;90.87;;;86.90;;
37495;SDS011;23346;52.088;4.746;2024-01-15T10:11:33;90.80;;;86.83;;
37495;SDS011;23346;52.088;4.746;2024-01-15T10:13:59;99.83;;;95.47;;
37495;SDS011;23346;52.088;4.746;2024-01-15T10:16:25;95.83;;;91.63;;
37495;SDS011;23346;52.088;4.746;2024-01-15T10:18:51;100.17;;;95.77;;
37495;SDS011;23346;52.088;4.746;2024-01-15T10:21:17;100.57;;;96.17;;
37495;SDS011;23346;52.088;4.746;2024-01-15T10:23:44;103.87;;;99.27;;
37495;SDS011;23346;52.088;4.746;2024-01-15T10:26:10;137.23;;;131.07;;
37495;SDS011;23346;52.088;4.746;2024-01-15T10:28:37;112.57;;;107.63;;
37495;SDS011;23346;52.088;4.746;2024-01-15T10:31:03;112.43;;;107.50;;
37495;SDS011;23346;52.088;4.746;2024-01-15T10:33:29;111.93;;;107.00;;
37495;SDS011;23346;52.088;4.746;2024-01-15T10:35:56;104.63;;;100.03;;
37495;SDS011;23346;52.088;4.746;2024-01-15T10:38:22;95.93;;;91.73;;
37495;SDS011;23346;52.088;4.746;2024-01-15T10:40:52;111.13;;;106.23;;
37495;SDS011;23346;52.088;4.746;2024-01-15T10:43:18;121.57;;;116.23;;
37495;SDS011;23346;52.088;4.746;2024-01-15T10:45:45;116.87;;;111.73;;
37495;SDS011;23346;52.088;4.746;2024-01-15T10:48:11;120.47;;;115.13;;
37495;SDS011;23346;52.088;4.746;2024-01-15T10:50:37;116.27;;;111.13;;
37495;SDS011;23346;52.088;4.746;2024-01-15T10:53:04;111.93;;;107.03;;
37495;SDS011;23346;52.088;4.746;2024-01-15T10:55:30;105.67;;;101.03;;
37495;SDS011;23346;52.088;4.746;2024-01-15T10:57:56;100.37;;;95.97;;
37495;SDS011;23346;52.088;4.746;2024-01-15T11:00:22;99.97;;;95.60;;
37495;SDS011;23346;52.088;4.746;2024-01-15T11:02:50;106.70;;;102.03;;
37495;SDS011;23346;52.088;4.746;2024-01-15T11:05:20;102.87;;;98.33;;
37495;SDS011;23346;52.088;4.746;2024-01-15T11:07:47;105.53;;;100.90;;
37495;SDS011;23346;52.088;4.746;2024-01-15T11:12:58;100.73;;;96.30;;
37495;SDS011;23346;52.088;4.746;2024-01-15T11:15:24;100.57;;;96.17;;
37495;SDS011;23346;52.088;4.746;2024-01-15T11:18:00;96.17;;;91.93;;
37495;SDS011;23346;52.088;4.746;2024-01-15T11:20:28;93.70;;;89.60;;
37495;SDS011;23346;52.088;4.746;2024-01-15T11:22:55;97.03;;;92.80;;
37495;SDS011;23346;52.088;4.746;2024-01-15T11:25:24;99.83;;;95.47;;
37495;SDS011;23346;52.088;4.746;2024-01-15T11:27:51;91.67;;;87.67;;
37495;SDS011;23346;52.088;4.746;2024-01-15T11:30:17;93.50;;;89.40;;
37495;SDS011;23346;52.088;4.746;2024-01-15T11:32:47;101.07;;;96.63;;
37495;SDS011;23346;52.088;4.746;2024-01-15T11:35:13;104.73;;;100.13;;
37495;SDS011;23346;52.088;4.746;2024-01-15T11:40:23;100.80;;;96.40;;
37495;SDS011;23346;52.088;4.746;2024-01-15T11:43:02;97.20;;;92.97;;
37495;SDS011;23346;52.088;4.746;2024-01-15T11:45:30;96.77;;;92.53;;
37495;SDS011;23346;52.088;4.746;2024-01-15T11:50:41;98.37;;;94.07;;
37495;SDS011;23346;52.088;4.746;2024-01-15T11:53:53;103.10;;;98.57;;
37495;SDS011;23346;52.088;4.746;2024-01-15T11:55:54;101.93;;;97.47;;
37495;SDS011;23346;52.088;4.746;2024-01-15T11:58:23;109.33;;;104.53;;
37495;SDS011;23346;52.088;4.746;2024-01-15T12:00:51;114.30;;;109.30;;
37495;SDS011;23346;52.088;4.746;2024-01-15T12:03:17;103.87;;;99.30;;
37495;SDS011;23346;52.088;4.746;2024-01-15T12:05:43;96.63;;;92.40;;
37495;SDS011;23346;52.088;4.746;2024-01-15T12:08:09;95.63;;;91.43;;
37495;SDS011;23346;52.088;4.746;2024-01-15T12:10:39;99.10;;;94.77;;
37495;SDS011;23346;52.088;4.746;2024-01-15T12:13:15;99.10;;;94.73;;
37495;SDS011;23346;52.088;4.746;2024-01-15T12:15:43;97.43;;;93.13;;
37495;SDS011;23346;52.088;4.746;2024-01-15T12:18:09;98.13;;;93.83;;
37495;SDS011;23346;52.088;4.746;2024-01-15T12:20:36;103.40;;;98.87;;
37495;SDS011;23346;52.088;4.746;2024-01-15T12:23:02;110.53;;;105.67;;
37495;SDS011;23346;52.088;4.746;2024-01-15T12:25:31;103.80;;;99.23;;
37495;SDS011;23346;52.088;4.746;2024-01-15T12:27:57;104.20;;;99.63;;
37495;SDS011;23346;52.088;4.746;2024-01-15T12:30:25;101.77;;;97.30;;
37495;SDS011;23346;52.088;4.746;2024-01-15T12:32:51;105.33;;;100.70;;
37495;SDS011;23346;52.088;4.746;2024-01-15T12:35:17;102.50;;;97.97;;
37495;SDS011;23346;52.088;4.746;2024-01-15T12:37:43;111.90;;;107.00;;
37495;SDS011;23346;52.088;4.746;2024-01-15T12:40:11;104.53;;;99.93;;
37495;SDS011;23346;52.088;4.746;2024-01-15T12:42:39;100.80;;;96.37;;
37495;SDS011;23346;52.088;4.746;2024-01-15T12:45:05;102.87;;;98.37;;
37495;SDS011;23346;52.088;4.746;2024-01-15T12:47:31;98.50;;;94.20;;
37495;SDS011;23346;52.088;4.746;2024-01-15T12:49:58;106.73;;;102.03;;
37495;SDS011;23346;52.088;4.746;2024-01-15T12:52:29;102.87;;;98.37;;
37495;SDS011;23346;52.088;4.746;2024-01-15T12:54:56;99.30;;;94.90;;
37495;SDS011;23346;52.088;4.746;2024-01-15T12:57:22;99.30;;;94.93;;
37495;SDS011;23346;52.088;4.746;2024-01-15T12:59:48;99.63;;;95.27;;
37495;SDS011;23346;52.088;4.746;2024-01-15T13:02:15;96.47;;;92.23;;
37495;SDS011;23346;52.088;4.746;2024-01-15T13:04:41;97.00;;;92.77;;
37495;SDS011;23346;52.088;4.746;2024-01-15T13:07:07;92.33;;;88.30;;
37495;SDS011;23346;52.088;4.746;2024-01-15T13:09:34;75.43;;;72.13;;
37495;SDS011;23346;52.088;4.746;2024-01-15T13:12:01;62.57;;;59.87;;
37495;SDS011;23346;52.088;4.746;2024-01-15T13:14:27;63.70;;;60.90;;
37495;SDS011;23346;52.088;4.746;2024-01-15T13:16:53;62.13;;;59.43;;
37495;SDS011;23346;52.088;4.746;2024-01-15T13:19:20;57.40;;;54.90;;
37495;SDS011;23346;52.088;4.746;2024-01-15T13:21:46;58.33;;;55.83;;
37495;SDS011;23346;52.088;4.746;2024-01-15T13:24:12;51.47;;;49.27;;
37495;SDS011;23346;52.088;4.746;2024-01-15T13:26:39;53.07;;;50.77;;
37495;SDS011;23346;52.088;4.746;2024-01-15T13:29:05;59.30;;;56.73;;
37495;SDS011;23346;52.088;4.746;2024-01-15T13:31:31;66.40;;;63.53;;
37495;SDS011;23346;52.088;4.746;2024-01-15T13:33:57;72.17;;;69.03;;
37495;SDS011;23346;52.088;4.746;2024-01-15T13:36:24;77.77;;;74.37;;
37495;SDS011;23346;52.088;4.746;2024-01-15T13:38:50;81.33;;;77.80;;
37495;SDS011;23346;52.088;4.746;2024-01-15T13:41:17;86.17;;;82.40;;
37495;SDS011;23346;52.088;4.746;2024-01-15T13:43:53;88.17;;;84.30;;
37495;SDS011;23346;52.088;4.746;2024-01-15T13:46:19;84.13;;;80.43;;
37495;SDS011;23346;52.088;4.746;2024-01-15T13:48:46;81.97;;;78.37;;
37495;SDS011;23346;52.088;4.746;2024-01-15T13:51:12;88.10;;;84.23;;
37495;SDS011;23346;52.088;4.746;2024-01-15T13:53:38;103.17;;;98.63;;
37495;SDS011;23346;52.088;4.746;2024-01-15T13:56:05;110.67;;;105.77;;
37495;SDS011;23346;52.088;4.746;2024-01-15T13:58:32;116.40;;;111.27;;
37495;SDS011;23346;52.088;4.746;2024-01-15T14:00:58;124.30;;;118.80;;
37495;SDS011;23346;52.088;4.746;2024-01-15T14:03:24;124.63;;;119.13;;
37495;SDS011;23346;52.088;4.746;2024-01-15T14:05:53;134.87;;;128.93;;
37495;SDS011;23346;52.088;4.746;2024-01-15T14:08:19;141.13;;;134.87;;
37495;SDS011;23346;52.088;4.746;2024-01-15T14:10:45;140.87;;;134.63;;
37495;SDS011;23346;52.088;4.746;2024-01-15T14:13:11;136.27;;;130.20;;
37495;SDS011;23346;52.088;4.746;2024-01-15T14:15:37;139.67;;;133.43;;
37495;SDS011;23346;52.088;4.746;2024-01-15T14:18:03;138.67;;;132.53;;
37495;SDS011;23346;52.088;4.746;2024-01-15T14:20:29;137.93;;;131.80;;